Time;durP1;ratioP1;P1;durP2;ratioP2;P2;SDS_P1;SDS_P2;PMS_P1;PMS_P2;Temp;Humidity;BMP_temperature;BMP_pressure;BME280_temperature;BME280_humidity;BME280_pressure;Samples;Min_cycle;Max_cycle;Signal;HPM_P1;HPM_P2
2021/04/29 01:43:24;;;;;;;16.07;10.67;;;8.60;99.90;;;;;;5063477;28;20211;-76
2021/04/29 01:46:10;;;;;;;14.03;9.67;;;8.50;99.90;;;;;;5056602;28;20306;-76
2021/04/29 01:48:55;;;;;;;15.27;9.97;;;8.50;99.90;;;;;;5055857;28;20239;-76
2021/04/29 01:51:41;;;;;;;16.47;10.23;;;8.40;99.90;;;;;;5060535;28;20622;-76
2021/04/29 01:54:26;;;;;;;16.03;11.00;;;8.40;99.90;;;;;;5045602;28;20562;-76
2021/04/29 01:57:11;;;;;;;18.73;10.87;;;8.40;99.90;;;;;;5044003;28;20261;-76
2021/04/29 01:59:57;;;;;;;15.90;10.47;;;8.40;99.90;;;;;;5046031;28;20602;-77
2021/04/29 02:02:42;;;;;;;15.77;11.00;;;8.40;99.90;;;;;;5045058;28;20234;-77
2021/04/29 02:05:27;;;;;;;15.17;10.87;;;8.40;99.90;;;;;;5044147;28;20246;-77
2021/04/29 02:08:12;;;;;;;18.40;11.23;;;8.40;99.90;;;;;;5041089;28;20211;-77
2021/04/29 02:10:58;;;;;;;18.03;11.00;;;8.40;99.90;;;;;;5045265;28;20250;-77
2021/04/29 02:13:47;;;;;;;15.50;11.00;;;8.40;99.90;;;;;;5044039;28;20234;-77
2021/04/29 02:16:37;;;;;;;16.83;9.73;;;8.40;99.90;;;;;;5044100;28;20258;-76
2021/04/29 02:19:25;;;;;;;15.50;10.40;;;8.50;99.90;;;;;;5045474;28;20222;-76
2021/04/29 02:22:12;;;;;;;16.37;10.80;;;8.50;99.90;;;;;;5046748;28;20202;-76
2021/04/29 02:24:58;;;;;;;16.77;10.87;;;8.50;99.90;;;;;;5045423;28;20673;-76
2021/04/29 02:27:43;;;;;;;17.67;11.47;;;8.60;99.90;;;;;;5048147;28;20211;-76
2021/04/29 02:30:28;;;;;;;22.40;12.07;;;8.60;99.90;;;;;;5050368;28;20222;-76
2021/04/29 02:33:14;;;;;;;16.57;10.20;;;8.70;99.90;;;;;;5047744;28;20235;-76
2021/04/29 02:36:01;;;;;;;19.97;11.60;;;8.70;99.90;;;;;;5044968;28;20202;-77
2021/04/29 02:38:46;;;;;;;15.50;10.70;;;8.70;99.90;;;;;;5048596;28;20211;-76
2021/04/29 02:41:31;;;;;;;16.63;11.30;;;8.80;99.90;;;;;;5044583;28;20724;-76
2021/04/29 02:44:16;;;;;;;18.83;12.30;;;8.90;99.90;;;;;;5049963;28;20207;-77
2021/04/29 02:47:01;;;;;;;18.77;11.00;;;8.90;99.90;;;;;;5047179;28;20231;-76
2021/04/29 02:49:47;;;;;;;15.67;10.80;;;9.00;99.90;;;;;;5048940;28;20755;-77
2021/04/29 02:52:32;;;;;;;15.03;10.97;;;9.00;99.90;;;;;;5050646;28;20811;-77
2021/04/29 02:55:17;;;;;;;17.17;11.33;;;8.80;99.90;;;;;;5043044;28;20207;-76
2021/04/29 02:58:04;;;;;;;16.93;11.57;;;9.10;99.90;;;;;;5049633;28;20207;-77
2021/04/29 03:00:51;;;;;;;17.87;10.93;;;9.10;99.90;;;;;;5047849;28;20234;-77
2021/04/29 03:03:36;;;;;;;18.70;11.27;;;9.10;99.90;;;;;;5046837;28;20246;-77
2021/04/29 03:06:23;;;;;;;18.97;11.63;;;9.20;99.90;;;;;;5048472;28;20261;-77
2021/04/29 03:09:07;;;;;;;17.67;10.77;;;9.20;99.90;;;;;;5046056;28;20207;-76
2021/04/29 03:11:52;;;;;;;18.97;11.03;;;9.20;99.90;;;;;;5048554;28;20215;-76
2021/04/29 03:14:37;;;;;;;16.40;11.23;;;9.20;99.90;;;;;;5048014;28;20218;-76
2021/04/29 03:17:21;;;;;;;18.20;11.23;;;9.30;99.90;;;;;;5048362;28;20253;-75
2021/04/29 03:20:08;;;;;;;19.23;11.20;;;9.30;99.90;;;;;;5048085;28;20589;-75
2021/04/29 03:22:53;;;;;;;17.73;11.70;;;9.30;99.90;;;;;;5048379;28;20215;-75
2021/04/29 03:25:38;;;;;;;16.43;11.80;;;9.40;99.90;;;;;;5048374;28;20901;-76
2021/04/29 03:28:23;;;;;;;21.97;12.17;;;9.40;99.90;;;;;;5047326;28;20242;-75
2021/04/29 03:31:07;;;;;;;18.67;11.73;;;9.50;99.90;;;;;;5045281;28;20225;-75
2021/04/29 03:33:52;;;;;;;18.13;11.73;;;9.50;99.90;;;;;;5042373;28;20210;-76
2021/04/29 03:36:37;;;;;;;16.10;10.93;;;9.50;99.90;;;;;;5046930;28;20234;-75
2021/04/29 03:39:23;;;;;;;18.17;12.97;;;9.60;99.90;;;;;;5046289;28;20220;-76
2021/04/29 03:42:09;;;;;;;17.80;12.07;;;9.60;99.90;;;;;;5047994;28;20218;-76
2021/04/29 03:44:54;;;;;;;20.07;12.27;;;9.60;99.90;;;;;;5046705;28;20817;-76
2021/04/29 03:47:38;;;;;;;19.40;11.63;;;9.70;99.90;;;;;;5047802;28;20215;-76
2021/04/29 03:50:23;;;;;;;18.03;12.33;;;9.70;99.90;;;;;;5049289;28;20226;-76
2021/04/29 03:53:08;;;;;;;17.93;12.90;;;9.70;99.90;;;;;;5047690;28;20203;-76
2021/04/29 03:55:53;;;;;;;18.63;12.67;;;9.70;99.90;;;;;;5044208;28;20276;-76
2021/04/29 03:58:38;;;;;;;19.57;13.73;;;9.70;99.90;;;;;;5044708;28;20210;-76
2021/04/29 04:01:24;;;;;;;19.30;14.37;;;9.60;99.90;;;;;;5048172;28;20219;-75
2021/04/29 04:04:08;;;;;;;20.60;14.23;;;9.60;99.90;;;;;;5069614;28;20175;-76
2021/04/29 04:06:54;;;;;;;20.90;15.40;;;9.60;99.90;;;;;;5067357;28;20271;-76
2021/04/29 04:09:39;;;;;;;21.30;15.17;;;9.60;99.90;;;;;;5048169;28;20231;-76
2021/04/29 04:12:25;;;;;;;21.23;13.97;;;9.50;99.90;;;;;;5048993;28;20700;-76
2021/04/29 04:15:10;;;;;;;21.63;15.67;;;9.50;99.90;;;;;;5046688;28;20258;-76
2021/04/29 04:17:55;;;;;;;23.80;16.10;;;9.40;99.90;;;;;;5048683;28;20593;-76
2021/04/29 04:20:41;;;;;;;24.47;15.20;;;9.40;99.90;;;;;;5048815;28;20336;-76
2021/04/29 04:23:25;;;;;;;20.97;15.33;;;9.30;99.90;;;;;;5045578;28;20211;-76
2021/04/29 04:26:10;;;;;;;29.40;16.93;;;9.30;99.90;;;;;;5047295;28;20206;-76
2021/04/29 04:28:56;;;;;;;26.30;15.80;;;9.20;99.90;;;;;;5047620;28;20406;-76
2021/04/29 04:31:41;;;;;;;26.17;17.10;;;9.20;99.90;;;;;;5048206;28;20225;-76
2021/04/29 04:34:26;;;;;;;24.70;17.30;;;9.10;99.90;;;;;;5042878;28;20222;-76
2021/04/29 04:37:10;;;;;;;24.50;18.17;;;9.10;99.90;;;;;;5047793;28;20211;-76
2021/04/29 04:39:55;;;;;;;25.67;17.97;;;9.00;99.90;;;;;;5053437;28;20282;-76
2021/04/29 04:42:40;;;;;;;26.37;17.67;;;9.00;99.90;;;;;;5050614;28;20286;-76
2021/04/29 04:45:26;;;;;;;28.30;19.03;;;9.00;99.90;;;;;;5043809;28;20349;-76
2021/04/29 04:48:11;;;;;;;14.47;9.83;;;8.90;99.90;;;;;;5048121;28;20618;-76
2021/04/29 04:50:55;;;;;;;28.47;18.67;;;8.90;99.90;;;;;;5044015;28;20298;-76
2021/04/29 04:53:40;;;;;;;28.57;19.53;;;8.90;99.90;;;;;;5047775;28;20333;-76
2021/04/29 04:56:26;;;;;;;24.00;18.20;;;8.90;99.90;;;;;;5050498;28;20283;-76
2021/04/29 04:59:11;;;;;;;27.03;20.17;;;8.90;99.90;;;;;;5038414;28;20266;-76
2021/04/29 05:01:56;;;;;;;27.97;18.97;;;8.80;99.90;;;;;;5039853;28;20351;-76
2021/04/29 05:04:41;;;;;;;28.53;19.53;;;8.80;99.90;;;;;;5041824;28;21010;-76
2021/04/29 05:07:27;;;;;;;27.63;19.80;;;8.80;99.90;;;;;;5042273;28;20226;-76
2021/04/29 05:10:12;;;;;;;25.73;18.87;;;8.80;99.90;;;;;;5044218;28;20229;-76
2021/04/29 05:12:57;;;;;;;29.17;18.60;;;8.80;99.90;;;;;;5043496;28;20222;-76
2021/04/29 05:15:42;;;;;;;27.53;19.03;;;8.80;99.90;;;;;;5043369;28;20690;-76
2021/04/29 05:18:28;;;;;;;30.97;19.87;;;8.80;99.90;;;;;;5040109;28;20735;-76
2021/04/29 05:21:14;;;;;;;28.60;20.57;;;8.80;99.90;;;;;;5043566;28;20735;-76
2021/04/29 05:23:58;;;;;;;28.40;20.57;;;8.70;99.90;;;;;;5044244;28;20745;-76
2021/04/29 05:26:45;;;;;;;30.93;21.30;;;8.70;99.90;;;;;;5043301;28;20311;-78
2021/04/29 05:29:30;;;;;;;34.87;20.33;;;8.70;99.90;;;;;;5045185;28;20224;-76
2021/04/29 05:32:15;;;;;;;29.03;21.43;;;8.70;99.90;;;;;;5042304;28;20230;-76
2021/04/29 05:35:01;;;;;;;31.90;21.73;;;8.70;99.90;;;;;;5040350;28;20619;-76
2021/04/29 05:37:46;;;;;;;27.77;22.47;;;8.70;99.90;;;;;;5048492;28;20256;-76
2021/04/29 05:40:31;;;;;;;32.60;23.33;;;8.70;99.90;;;;;;5045905;28;20587;-77
2021/04/29 05:43:15;;;;;;;35.10;23.73;;;8.70;99.90;;;;;;5043863;28;20242;-77
2021/04/29 05:46:00;;;;;;;35.27;24.60;;;8.80;99.90;;;;;;5047297;28;20244;-77
2021/04/29 05:48:45;;;;;;;32.50;24.23;;;8.80;99.90;;;;;;5050218;28;20265;-76
2021/04/29 05:51:30;;;;;;;34.73;25.47;;;8.80;99.90;;;;;;5045330;28;20230;-77
2021/04/29 05:54:15;;;;;;;38.13;26.40;;;8.90;99.90;;;;;;5048200;28;20212;-78
2021/04/29 05:57:01;;;;;;;34.97;24.47;;;9.00;99.90;;;;;;5046449;28;20210;-78
2021/04/29 05:59:46;;;;;;;35.70;24.93;;;9.00;99.90;;;;;;5045713;28;20231;-77
2021/04/29 06:02:30;;;;;;;32.90;24.17;;;9.10;99.90;;;;;;5053148;28;20228;-78
2021/04/29 06:05:15;;;;;;;34.50;24.30;;;9.20;99.90;;;;;;5054705;28;20224;-77
2021/04/29 06:08:02;;;;;;;36.77;26.20;;;9.20;99.90;;;;;;5053593;28;20262;-78
2021/04/29 06:10:46;;;;;;;32.67;23.23;;;9.30;99.90;;;;;;5054982;28;20663;-78
2021/04/29 06:13:31;;;;;;;35.17;24.67;;;9.30;99.90;;;;;;5057877;28;20282;-78
2021/04/29 06:16:16;;;;;;;30.97;23.83;;;9.40;99.90;;;;;;5046764;28;20742;-77
2021/04/29 06:19:01;;;;;;;35.37;25.53;;;9.40;99.90;;;;;;5054655;28;20304;-78
2021/04/29 06:21:45;;;;;;;36.90;26.20;;;9.40;99.90;;;;;;5053406;28;20200;-78
2021/04/29 06:24:31;;;;;;;36.03;24.90;;;9.50;99.90;;;;;;5049021;28;20208;-78
2021/04/29 06:27:16;;;;;;;36.97;26.47;;;9.60;99.90;;;;;;5049149;28;20226;-77
2021/04/29 06:30:01;;;;;;;37.17;26.00;;;9.70;99.90;;;;;;5046950;28;20221;-78
2021/04/29 06:32:46;;;;;;;34.07;24.50;;;9.80;99.90;;;;;;5046360;28;20298;-78
2021/04/29 06:35:31;;;;;;;34.03;23.97;;;9.90;99.90;;;;;;5051480;28;20232;-78
2021/04/29 06:38:16;;;;;;;29.97;23.27;;;10.00;99.90;;;;;;5049394;28;20305;-78
2021/04/29 06:41:01;;;;;;;31.30;23.07;;;10.10;99.90;;;;;;5044235;28;20387;-78
2021/04/29 06:43:46;;;;;;;31.20;23.83;;;10.20;99.90;;;;;;5046660;28;20220;-77
2021/04/29 06:46:31;;;;;;;29.67;23.27;;;10.30;99.90;;;;;;5046603;28;20215;-78
2021/04/29 06:49:16;;;;;;;32.90;23.13;;;10.30;99.90;;;;;;5045179;28;20341;-78
2021/04/29 06:52:00;;;;;;;30.37;22.33;;;10.50;99.90;;;;;;5051133;28;20207;-78
2021/04/29 06:54:45;;;;;;;32.27;24.23;;;10.60;99.90;;;;;;5046795;28;20298;-78
2021/04/29 06:57:31;;;;;;;30.83;22.30;;;10.70;99.90;;;;;;5047985;28;20593;-78
2021/04/29 07:00:17;;;;;;;31.10;22.70;;;10.80;99.90;;;;;;5047675;28;20237;-77
2021/04/29 07:03:02;;;;;;;33.77;23.00;;;10.90;99.90;;;;;;5052077;28;20583;-77
2021/04/29 07:05:47;;;;;;;28.93;22.73;;;11.00;99.90;;;;;;5050507;28;20285;-78
2021/04/29 07:08:34;;;;;;;26.47;20.10;;;11.10;99.90;;;;;;5070978;28;20223;-78
2021/04/29 07:11:20;;;;;;;29.87;22.23;;;11.30;99.90;;;;;;5064159;28;20260;-77
2021/04/29 07:14:06;;;;;;;27.03;20.60;;;11.40;99.90;;;;;;5051019;28;20714;-78
2021/04/29 07:16:51;;;;;;;29.17;21.40;;;11.60;99.90;;;;;;5051919;28;20278;-78
2021/04/29 07:19:35;;;;;;;29.17;20.27;;;11.70;99.90;;;;;;5051600;28;20278;-78
2021/04/29 07:22:20;;;;;;;30.37;21.43;;;11.80;99.90;;;;;;5053571;28;20289;-77
2021/04/29 07:25:07;;;;;;;29.63;20.67;;;11.90;99.90;;;;;;5050549;28;20209;-77
2021/04/29 07:27:52;;;;;;;27.30;21.63;;;12.00;99.90;;;;;;5048948;28;20628;-79
2021/04/29 07:30:39;;;;;;;26.30;20.27;;;12.10;99.90;;;;;;5051277;28;20255;-77
2021/04/29 07:33:24;;;;;;;28.60;21.53;;;12.20;99.90;;;;;;5046794;28;20238;-78
2021/04/29 07:36:09;;;;;;;26.67;20.17;;;12.30;99.90;;;;;;5052036;28;20613;-77
2021/04/29 07:38:54;;;;;;;28.13;21.03;;;12.40;99.90;;;;;;5050421;28;20264;-77
2021/04/29 07:41:39;;;;;;;25.70;20.30;;;12.40;99.90;;;;;;5047959;28;20275;-76
2021/04/29 07:44:24;;;;;;;26.87;21.27;;;12.50;99.90;;;;;;5048374;28;20212;-78
2021/04/29 07:47:10;;;;;;;28.27;19.87;;;12.50;99.90;;;;;;5049423;28;20273;-79
2021/04/29 07:49:55;;;;;;;21.63;19.17;;;12.50;99.90;;;;;;5046851;28;20765;-78
2021/04/29 07:52:41;;;;;;;26.50;21.27;;;12.60;99.90;;;;;;5052118;28;20217;-79
2021/04/29 07:55:26;;;;;;;26.93;19.60;;;12.60;99.90;;;;;;5048443;28;20758;-78
2021/04/29 07:58:11;;;;;;;26.30;20.07;;;12.60;99.90;;;;;;5050902;28;20220;-78
2021/04/29 08:00:56;;;;;;;25.37;20.50;;;12.60;99.90;;;;;;5050981;28;20283;-78
2021/04/29 08:03:41;;;;;;;28.10;20.47;;;12.60;99.90;;;;;;5047327;28;20213;-78
2021/04/29 08:06:26;;;;;;;25.13;20.40;;;12.60;99.90;;;;;;5048047;28;20221;-78
2021/04/29 08:09:11;;;;;;;29.50;21.33;;;12.60;99.90;;;;;;5049216;28;20198;-79
2021/04/29 08:11:55;;;;;;;26.60;20.73;;;12.50;99.90;;;;;;5050403;28;20210;-78
2021/04/29 08:14:40;;;;;;;25.03;20.37;;;12.50;99.90;;;;;;5049359;28;20280;-75
2021/04/29 08:17:25;;;;;;;26.93;20.90;;;12.50;99.90;;;;;;5048676;28;20213;-78
2021/04/29 08:20:13;;;;;;;29.73;22.33;;;12.40;99.90;;;;;;5048191;28;20221;-77
2021/04/29 08:22:58;;;;;;;28.23;21.97;;;12.30;99.90;;;;;;5050236;28;20213;-77
2021/04/29 08:25:43;;;;;;;27.57;22.33;;;12.30;99.90;;;;;;5050510;28;20216;-76
2021/04/29 08:28:28;;;;;;;25.63;21.63;;;12.30;99.90;;;;;;5047466;28;20209;-78
2021/04/29 08:31:13;;;;;;;30.93;23.10;;;12.20;99.90;;;;;;5050998;28;20728;-79
2021/04/29 08:33:57;;;;;;;30.90;22.67;;;12.20;99.90;;;;;;5048647;28;20743;-77
2021/04/29 08:36:43;;;;;;;27.50;21.03;;;12.10;99.90;;;;;;5048361;28;20261;-78
2021/04/29 08:39:28;;;;;;;29.87;23.03;;;12.10;99.90;;;;;;5045998;28;20248;-78
2021/04/29 08:42:14;;;;;;;26.80;21.40;;;12.00;99.90;;;;;;5046839;28;20206;-78
2021/04/29 08:44:58;;;;;;;27.23;22.00;;;12.00;99.90;;;;;;5048721;28;20225;-78
2021/04/29 08:47:47;;;;;;;31.73;24.87;;;11.90;99.90;;;;;;5050526;28;20218;-78
2021/04/29 08:50:34;;;;;;;24.87;19.83;;;11.90;99.90;;;;;;5042607;28;20251;-78
2021/04/29 08:53:19;;;;;;;30.47;23.57;;;11.90;99.90;;;;;;5046792;28;20208;-78
2021/04/29 08:56:05;;;;;;;29.73;23.40;;;11.90;99.90;;;;;;5049851;28;20263;-78
2021/04/29 08:58:50;;;;;;;29.23;24.07;;;11.90;99.90;;;;;;5046856;28;20211;-79
2021/04/29 09:01:39;;;;;;;26.73;21.90;;;11.80;99.90;;;;;;5058558;28;20220;-77
2021/04/29 09:04:24;;;;;;;26.43;21.07;;;11.80;99.90;;;;;;5063186;28;20232;-77
2021/04/29 09:07:14;;;;;;;27.43;22.00;;;11.80;99.90;;;;;;5061028;28;20215;-77
2021/04/29 09:10:00;;;;;;;28.20;22.33;;;11.80;99.90;;;;;;5061083;28;20225;-78
2021/04/29 09:12:45;;;;;;;25.63;18.93;;;11.80;99.90;;;;;;5058795;28;20244;-78
2021/04/29 09:15:31;;;;;;;28.87;22.43;;;11.70;99.90;;;;;;5045239;28;20236;-78
2021/04/29 09:18:17;;;;;;;27.57;21.97;;;11.70;99.90;;;;;;5050610;28;20219;-79
2021/04/29 09:21:07;;;;;;;27.47;22.43;;;11.70;99.90;;;;;;5051028;28;20225;-80
2021/04/29 09:23:52;;;;;;;27.47;20.77;;;11.70;99.90;;;;;;5045134;28;20273;-79
2021/04/29 09:26:37;;;;;;;26.03;20.07;;;11.70;99.90;;;;;;5047076;28;20213;-78
2021/04/29 09:29:22;;;;;;;27.50;19.37;;;11.70;99.90;;;;;;5052670;28;20336;-78
2021/04/29 09:32:07;;;;;;;24.80;20.03;;;11.70;99.90;;;;;;5053614;28;20208;-78
2021/04/29 09:34:52;;;;;;;26.57;18.97;;;11.70;99.90;;;;;;5042313;28;20220;-78
2021/04/29 09:37:39;;;;;;;25.27;19.67;;;11.80;99.90;;;;;;5048760;28;20212;-77
2021/04/29 09:40:25;;;;;;;23.17;19.40;;;11.70;99.90;;;;;;5048153;28;20224;-78
2021/04/29 09:43:11;;;;;;;23.23;18.47;;;11.70;99.90;;;;;;5055287;28;20247;-78
2021/04/29 09:45:58;;;;;;;24.40;19.40;;;11.70;99.90;;;;;;5057892;28;20237;-78
2021/04/29 09:48:43;;;;;;;24.33;21.00;;;;;;;;;;5060961;28;20516;-79
2021/04/29 09:51:36;;;;;;;22.97;18.83;;;12.00;99.90;;;;;;5058056;28;20236;-80
2021/04/29 09:54:25;;;;;;;24.40;18.97;;;12.00;99.90;;;;;;5056920;28;20283;-78
2021/04/29 09:57:13;;;;;;;23.73;17.67;;;12.00;99.90;;;;;;5053435;28;20268;-79
2021/04/29 10:00:01;;;;;;;24.03;17.97;;;12.10;99.90;;;;;;5050665;28;20243;-80
2021/04/29 10:02:45;;;;;;;21.20;17.80;;;12.10;99.90;;;;;;5051508;28;20293;-81
2021/04/29 10:05:35;;;;;;;24.20;18.73;;;12.20;99.90;;;;;;5050645;28;20213;-78
2021/04/29 10:08:23;;;;;;;24.10;17.93;;;12.20;99.90;;;;;;5049242;28;20264;-78
2021/04/29 10:11:10;;;;;;;22.83;18.17;;;12.20;99.90;;;;;;5064924;28;20251;-78
2021/04/29 10:13:55;;;;;;;17.13;12.93;;;12.20;99.90;;;;;;5070487;28;20207;-79
2021/04/29 10:16:42;;;;;;;24.20;17.43;;;12.20;99.90;;;;;;5053809;28;20590;-78
2021/04/29 10:19:27;;;;;;;22.20;15.97;;;12.20;99.90;;;;;;5050785;28;20213;-79
2021/04/29 10:22:13;;;;;;;24.77;16.83;;;12.30;99.90;;;;;;5053097;28;20217;-78
2021/04/29 10:24:58;;;;;;;19.83;15.67;;;12.20;99.90;;;;;;5049383;28;20215;-79
2021/04/29 10:27:44;;;;;;;26.13;18.07;;;12.30;99.90;;;;;;5051435;28;20310;-78
2021/04/29 10:30:34;;;;;;;24.43;17.53;;;12.20;99.90;;;;;;5052723;28;20224;-79
2021/04/29 10:33:21;;;;;;;19.93;15.87;;;12.20;99.90;;;;;;5055900;28;20268;-79
2021/04/29 10:36:12;;;;;;;22.57;17.53;;;12.20;99.90;;;;;;5061830;28;20207;-78
2021/04/29 10:39:09;;;;;;;21.60;16.20;;;12.20;99.90;;;;;;5061468;28;20206;-79
2021/04/29 10:42:03;;;;;;;23.80;16.60;;;12.10;99.90;;;;;;5049884;28;20227;-79
2021/04/29 10:44:50;;;;;;;23.57;17.00;;;12.10;99.90;;;;;;5050412;28;20279;-79
2021/04/29 10:47:35;;;;;;;25.57;16.60;;;12.00;99.90;;;;;;5054757;28;20287;-78
2021/04/29 10:50:22;;;;;;;24.50;17.33;;;12.00;99.90;;;;;;5054344;28;20892;-81
2021/04/29 10:53:07;;;;;;;23.00;17.33;;;11.90;99.90;;;;;;5057367;28;21004;-79
2021/04/29 10:55:59;;;;;;;23.27;15.90;;;11.90;99.90;;;;;;5059725;28;20243;-79
2021/04/29 10:58:45;;;;;;;22.10;17.77;;;11.80;99.90;;;;;;5055634;28;20220;-79
2021/04/29 11:01:41;;;;;;;21.53;15.00;;;11.70;99.90;;;;;;5056764;28;20710;-79
2021/04/29 11:04:26;;;;;;;22.93;16.50;;;11.60;99.90;;;;;;5057361;28;20205;-78
2021/04/29 11:07:13;;;;;;;20.13;15.70;;;11.60;99.90;;;;;;5054196;28;20288;-78
2021/04/29 11:10:05;;;;;;;20.40;15.50;;;11.50;99.90;;;;;;5055635;28;20587;-79
2021/04/29 11:12:52;;;;;;;21.47;17.33;;;11.40;99.90;;;;;;5057088;28;20229;-79
2021/04/29 11:15:38;;;;;;;23.07;18.80;;;11.40;99.90;;;;;;5053660;28;20204;-78
2021/04/29 11:18:24;;;;;;;21.47;17.23;;;11.30;99.90;;;;;;5056493;28;21284;-78
2021/04/29 11:21:08;;;;;;;20.00;15.47;;;11.20;99.90;;;;;;5059294;28;20324;-78
2021/04/29 11:23:54;;;;;;;21.37;16.17;;;11.20;99.90;;;;;;5049522;28;20208;-79
2021/04/29 11:26:41;;;;;;;20.27;15.53;;;11.10;99.90;;;;;;5053989;28;20231;-79
2021/04/29 11:29:35;;;;;;;16.17;12.03;;;11.10;99.90;;;;;;5051799;28;20290;-79
2021/04/29 11:32:21;;;;;;;18.57;13.93;;;11.00;99.90;;;;;;5052747;28;20227;-77
2021/04/29 11:35:07;;;;;;;17.07;14.47;;;11.00;99.90;;;;;;5052963;28;20217;-79
2021/04/29 11:37:52;;;;;;;18.50;15.53;;;10.90;99.90;;;;;;5053123;28;20211;-79
2021/04/29 11:40:38;;;;;;;19.33;14.80;;;10.80;99.90;;;;;;5055420;28;20280;-79
2021/04/29 11:43:23;;;;;;;20.13;15.33;;;10.80;99.90;;;;;;5056485;28;20581;-78
2021/04/29 11:46:19;;;;;;;23.33;16.60;;;10.70;99.90;;;;;;5054726;28;20219;-78
2021/04/29 11:49:05;;;;;;;22.53;16.67;;;10.70;99.90;;;;;;5054827;28;20228;-78
2021/04/29 11:51:51;;;;;;;28.03;18.50;;;10.60;99.90;;;;;;5055890;28;20223;-79
2021/04/29 11:54:46;;;;;;;23.90;18.30;;;10.50;99.90;;;;;;5054159;28;20314;-79
2021/04/29 11:57:32;;;;;;;24.53;19.50;;;10.40;99.90;;;;;;5057095;28;20229;-78
2021/04/29 12:00:18;;;;;;;27.17;18.20;;;10.40;99.90;;;;;;5054164;28;20222;-78
2021/04/29 12:03:07;;;;;;;21.57;17.10;;;10.30;99.90;;;;;;5050461;28;20235;-78
2021/04/29 12:05:54;;;;;;;20.40;14.60;;;10.20;99.90;;;;;;5050422;28;20203;-78
2021/04/29 12:08:38;;;;;;;23.67;18.77;;;10.10;99.90;;;;;;5054613;28;20211;-78
2021/04/29 12:11:23;;;;;;;22.53;17.23;;;10.10;99.90;;;;;;5054680;28;20239;-78
2021/04/29 12:14:08;;;;;;;25.80;17.93;;;9.90;99.90;;;;;;5053466;28;22188;-78
2021/04/29 12:16:59;;;;;;;25.30;18.83;;;9.90;99.90;;;;;;5055822;28;20258;-78
2021/04/29 12:19:48;;;;;;;24.40;18.37;;;9.80;99.90;;;;;;5054755;28;20234;-78
2021/04/29 12:22:33;;;;;;;24.93;19.80;;;9.80;99.90;;;;;;5055593;28;20234;-78
2021/04/29 12:25:20;;;;;;;24.17;18.57;;;9.70;99.90;;;;;;5057671;28;20199;-78
2021/04/29 12:28:18;;;;;;;23.50;19.60;;;9.70;99.90;;;;;;5055226;28;20317;-78
2021/04/29 12:31:16;;;;;;;23.67;18.53;;;9.60;99.90;;;;;;5055177;28;20711;-78
2021/04/29 12:34:04;;;;;;;23.87;17.63;;;9.60;99.90;;;;;;5051735;28;20274;-80
2021/04/29 12:36:51;;;;;;;20.30;16.83;;;9.50;99.90;;;;;;5054417;28;20234;-79
2021/04/29 12:39:40;;;;;;;28.67;17.00;;;9.50;99.90;;;;;;5055639;28;20219;-78
2021/04/29 12:42:25;;;;;;;19.77;14.97;;;9.40;99.90;;;;;;5053952;28;20206;-79
2021/04/29 12:45:11;;;;;;;21.63;14.80;;;9.40;99.90;;;;;;5052342;28;20292;-79
2021/04/29 12:47:57;;;;;;;20.23;15.07;;;9.30;99.90;;;;;;5053756;28;20226;-78
2021/04/29 12:50:42;;;;;;;20.83;15.47;;;9.30;99.90;;;;;;5052326;28;20284;-78
2021/04/29 12:53:27;;;;;;;21.93;15.43;;;9.20;99.90;;;;;;5054093;28;20601;-78
2021/04/29 12:56:23;;;;;;;19.73;15.20;;;9.20;99.90;;;;;;5053748;28;20210;-79
2021/04/29 12:59:10;;;;;;;18.63;13.60;;;9.20;99.90;;;;;;5052242;28;20211;-77
2021/04/29 13:02:03;;;;;;;16.90;13.00;;;9.20;99.90;;;;;;5053545;28;20227;-79
2021/04/29 13:05:00;;;;;;;20.77;14.00;;;9.20;99.90;;;;;;5053396;28;20244;-79
2021/04/29 13:07:45;;;;;;;18.53;13.93;;;9.20;99.90;;;;;;5053110;28;20287;-78
2021/04/29 13:10:31;;;;;;;16.67;13.50;;;9.20;99.90;;;;;;5052653;28;20249;-79
2021/04/29 13:13:29;;;;;;;17.03;13.10;;;9.20;99.90;;;;;;5054591;28;20202;-79
2021/04/29 13:16:15;;;;;;;16.27;12.77;;;9.20;99.90;;;;;;5071999;28;20226;-79
2021/04/29 13:19:00;;;;;;;18.57;13.87;;;9.20;99.90;;;;;;5065240;28;20194;-79
2021/04/29 13:21:46;;;;;;;17.60;14.00;;;9.20;99.90;;;;;;5053715;28;20726;-78
2021/04/29 13:24:31;;;;;;;21.10;15.93;;;9.20;99.90;;;;;;5053033;28;20206;-78
2021/04/29 13:27:18;;;;;;;19.40;14.50;;;9.10;99.90;;;;;;5052671;28;20249;-78
2021/04/29 13:30:03;;;;;;;21.23;15.30;;;9.20;99.90;;;;;;5053539;28;20732;-79
2021/04/29 13:32:48;;;;;;;22.17;14.40;;;9.20;99.90;;;;;;5052687;28;20201;-79
2021/04/29 13:35:33;;;;;;;23.60;17.23;;;9.20;99.90;;;;;;5044117;28;20205;-79
2021/04/29 13:38:19;;;;;;;25.10;17.00;;;9.20;99.90;;;;;;5051599;28;20704;-79
2021/04/29 13:41:05;;;;;;;20.13;15.90;;;9.10;99.90;;;;;;5054359;28;20218;-79
2021/04/29 13:43:49;;;;;;;18.10;13.83;;;9.20;99.90;;;;;;5056035;28;20210;-79
2021/04/29 13:46:34;;;;;;;19.70;14.50;;;9.20;99.90;;;;;;5056057;28;20302;-78
2021/04/29 13:49:19;;;;;;;19.50;14.30;;;9.10;99.90;;;;;;5054507;28;20620;-78
2021/04/29 13:52:05;;;;;;;18.50;12.27;;;9.20;99.90;;;;;;5054065;28;20209;-79
2021/04/29 13:54:50;;;;;;;16.50;12.53;;;9.20;99.90;;;;;;5055192;28;20214;-79
2021/04/29 13:57:35;;;;;;;17.40;12.97;;;9.10;99.90;;;;;;5057259;28;20590;-78
2021/04/29 14:00:20;;;;;;;15.13;12.20;;;9.10;99.90;;;;;;5055812;28;20236;-78
2021/04/29 14:03:06;;;;;;;18.10;12.87;;;9.10;99.90;;;;;;5056209;28;20207;-79
2021/04/29 14:05:51;;;;;;;18.40;12.40;;;9.10;99.90;;;;;;5053660;28;20207;-79
2021/04/29 14:08:35;;;;;;;17.90;12.33;;;9.10;99.90;;;;;;5050797;28;20351;-78
2021/04/29 14:11:22;;;;;;;17.50;11.67;;;9.10;99.90;;;;;;5055339;28;20254;-78
2021/04/29 14:14:07;;;;;;;14.77;11.20;;;9.10;99.90;;;;;;5053873;28;20210;-78
2021/04/29 14:16:52;;;;;;;16.70;11.60;;;9.10;99.90;;;;;;5053027;28;20766;-78
2021/04/29 14:19:37;;;;;;;15.67;10.93;;;9.10;99.90;;;;;;5051611;28;20265;-78
2021/04/29 14:22:22;;;;;;;18.13;11.80;;;9.00;99.90;;;;;;5056049;28;20203;-78
2021/04/29 14:25:08;;;;;;;17.73;11.17;;;9.00;99.90;;;;;;5058542;28;20257;-78
2021/04/29 14:27:55;;;;;;;17.30;10.93;;;9.00;99.90;;;;;;5058722;28;20214;-79
2021/04/29 14:30:40;;;;;;;15.73;10.80;;;9.00;99.90;;;;;;5058645;28;20284;-79
2021/04/29 14:33:25;;;;;;;16.00;10.23;;;9.00;99.90;;;;;;5056683;28;20210;-79
2021/04/29 14:36:10;;;;;;;15.97;10.20;;;9.00;99.90;;;;;;5061310;28;20218;-79
2021/04/29 14:38:55;;;;;;;18.40;10.70;;;8.90;99.90;;;;;;5060786;28;21035;-79
2021/04/29 14:41:40;;;;;;;19.00;11.73;;;8.90;99.90;;;;;;5055164;28;20226;-78
2021/04/29 14:44:26;;;;;;;18.80;10.97;;;8.90;99.90;;;;;;5056781;28;20795;-78
2021/04/29 14:47:11;;;;;;;18.63;11.23;;;8.90;99.90;;;;;;5058430;28;20862;-78
2021/04/29 14:49:56;;;;;;;17.60;10.80;;;8.80;99.90;;;;;;5054385;28;20251;-79
2021/04/29 14:52:41;;;;;;;14.53;10.70;;;8.80;99.90;;;;;;5058488;28;20206;-79
2021/04/29 14:55:26;;;;;;;18.77;10.33;;;8.80;99.90;;;;;;5055215;28;20226;-79
2021/04/29 14:58:11;;;;;;;18.63;10.57;;;8.80;99.90;;;;;;5060321;28;20202;-78
2021/04/29 15:00:57;;;;;;;16.57;9.30;;;8.80;99.90;;;;;;5056621;28;20313;-78
2021/04/29 15:03:43;;;;;;;13.93;9.70;;;8.80;99.90;;;;;;5055986;28;20299;-78
2021/04/29 15:06:28;;;;;;;14.60;9.90;;;8.80;99.90;;;;;;5058498;28;20278;-80
2021/04/29 15:09:12;;;;;;;15.97;9.43;;;8.70;99.90;;;;;;5058367;28;20226;-79
2021/04/29 15:11:57;;;;;;;17.30;9.57;;;8.70;99.90;;;;;;5058499;28;20203;-78
2021/04/29 15:14:42;;;;;;;17.17;10.37;;;8.70;99.90;;;;;;5056354;28;20234;-80
2021/04/29 15:17:28;;;;;;;13.20;7.70;;;8.60;99.90;;;;;;5065300;28;20207;-79
2021/04/29 15:20:13;;;;;;;15.80;10.30;;;8.60;99.90;;;;;;5057219;28;20238;-80
2021/04/29 15:22:58;;;;;;;17.60;9.83;;;8.50;99.90;;;;;;5058776;28;20211;-77
2021/04/29 15:25:43;;;;;;;16.83;10.63;;;8.60;99.90;;;;;;5052441;28;20206;-78
2021/04/29 15:28:29;;;;;;;19.33;10.57;;;8.50;99.90;;;;;;5054623;28;20203;-79
2021/04/29 15:31:14;;;;;;;18.10;10.27;;;8.50;99.90;;;;;;5054960;28;20223;-78
2021/04/29 15:34:00;;;;;;;17.30;9.60;;;8.50;99.90;;;;;;5048790;28;20202;-78
2021/04/29 15:36:45;;;;;;;19.10;11.43;;;8.50;99.90;;;;;;5059701;28;20214;-78
2021/04/29 15:39:31;;;;;;;14.40;10.77;;;8.40;99.90;;;;;;5058814;28;20469;-77
2021/04/29 15:42:17;;;;;;;16.87;9.67;;;8.50;99.90;;;;;;5053614;28;20223;-79
2021/04/29 15:45:02;;;;;;;19.00;12.40;;;8.40;99.90;;;;;;5047242;28;20226;-77
2021/04/29 15:47:48;;;;;;;16.37;9.40;;;8.40;99.90;;;;;;5050533;28;20206;-77
2021/04/29 15:50:34;;;;;;;16.63;9.37;;;8.50;99.90;;;;;;5049236;28;20258;-77